General Rafael Buelna International Airport
MMMZ : now visible

Airfield :











YOU CAN JOIN US ON...

 
LOGIN :

Register | Disclaimer

   EN    FR    IT 

 









Legend :    VFR   Marginal VFR   IFR   Intensive IFR   Very Intensive IFR
Visi :
Ceiling :
>= 8 km
>= 3000ft
5 to 8 km
1000 to 3000 ft
1500m to 5 km
500 to 1000 ft
800 to 1500m
200 to 500 ft
< 800m
< 200 ft
Symbols :   Thunderstorms  Fog  Heavy snow  Heavy precipitations  Wind > 20 kt







- Airport Elevation : 38 ft
- IATA code : MZT


MMMZ - General Rafael Buelna International

CURRENT METAR :
  • 210742Z 00000KT 10SM SKC 18/18 A2984 RMK ISOL ST

EXPIRED METARs :
  • 210642Z 00000KT 10SM SKC 19/19 A2987
  • 210543Z 00000KT 10SM SKC 20/18 A2987 RMK SLP111 52010 902

TAF TAF MMMZ
Valid from the 21 at 06:00 until the 22 at 12:00 UTC


210428Z 2106/2212 00000KT P6SM SKC TX29/2118Z TN16/2112Z
FM210900 00000KT 3SM BR SCT010
TEMPO 2110/2114 1/2SM FG VV001
FM211600 26005KT 6SM HZ SKC
FM211800 24010KT P6SM SKC
FM220400 24005KT P6SM SKC
MMFR FIR / North America



MET'MAP, your aeronautical weather chart ! - Copyright ORBIFLY December 2007 - Disclaimer

ORBIFLY MET'MAP TEAM :

Programming & Development : Alexandra Zaïnal
Concept & Development : Baudouin d'Aumeries
Co-Development & Prog : Marc-Olivier Méhu
Technical & hardware support : Manuel Goepfert

Contact : metmap@orbifly.com




SOURCES & CREDITS :

   NOAA       Earth
Advisory